Time;durP1;ratioP1;P1;durP2;ratioP2;P2;SDS_P1;SDS_P2;PMS_P1;PMS_P2;Temp;Humidity;BMP_temperature;BMP_pressure;BME280_temperature;BME280_humidity;BME280_pressure;Samples;Min_cycle;Max_cycle;Signal;HPM_P1;HPM_P2
2022/07/19 00:02:12;;;;;;;4.27;2.50;;;24.80;60.00;;;;;;5043316;28;20203;-76
2022/07/19 00:04:40;;;;;;;5.53;2.77;;;24.70;59.90;;;;;;5025802;28;20230;-76
2022/07/19 00:07:07;;;;;;;3.63;2.57;;;24.60;59.90;;;;;;5040447;28;20692;-76
2022/07/19 00:09:34;;;;;;;4.33;2.60;;;24.60;59.90;;;;;;5042545;28;20281;-76
2022/07/19 00:12:01;;;;;;;5.93;2.80;;;24.60;59.90;;;;;;5044534;28;20207;-76
2022/07/19 00:14:28;;;;;;;6.80;2.57;;;24.50;59.80;;;;;;5043439;28;20218;-76
2022/07/19 00:16:55;;;;;;;3.33;2.30;;;24.50;59.80;;;;;;5046689;28;20301;-76
2022/07/19 00:19:22;;;;;;;7.33;2.70;;;24.50;60.00;;;;;;5047910;28;20641;-76
2022/07/19 00:21:49;;;;;;;4.70;2.33;;;24.50;60.10;;;;;;5043120;28;20668;-76
2022/07/19 00:24:17;;;;;;;4.93;2.53;;;24.50;60.10;;;;;;5045780;28;20658;-76
2022/07/19 00:26:44;;;;;;;4.53;2.20;;;24.40;60.20;;;;;;5047482;28;20277;-76
2022/07/19 00:29:11;;;;;;;4.37;2.57;;;24.40;60.30;;;;;;5044161;28;20203;-75
2022/07/19 00:31:38;;;;;;;3.73;2.40;;;24.40;60.60;;;;;;5044805;28;20310;-75
2022/07/19 00:34:05;;;;;;;4.97;2.37;;;24.40;60.50;;;;;;5043878;28;20229;-75
2022/07/19 00:36:32;;;;;;;3.67;2.80;;;24.40;60.70;;;;;;5048470;28;20421;-75
2022/07/19 00:39:00;;;;;;;4.77;2.53;;;24.40;60.70;;;;;;5041472;28;21191;-75
2022/07/19 00:41:27;;;;;;;3.80;2.57;;;24.30;60.50;;;;;;5027132;28;20245;-75
2022/07/19 00:43:55;;;;;;;4.80;2.60;;;24.30;60.60;;;;;;5042466;28;20207;-75
2022/07/19 00:46:23;;;;;;;3.50;2.40;;;24.30;60.80;;;;;;5046331;28;20204;-75
2022/07/19 00:48:50;;;;;;;3.23;2.50;;;24.20;61.00;;;;;;5050272;28;20297;-75
2022/07/19 00:51:20;;;;;;;3.07;2.43;;;24.30;61.10;;;;;;5031032;28;20211;-75
2022/07/19 00:53:48;;;;;;;5.53;2.73;;;24.20;61.10;;;;;;5030180;28;20756;-76
2022/07/19 00:56:17;;;;;;;4.87;2.37;;;24.20;61.20;;;;;;5044296;28;20237;-76
2022/07/19 00:58:44;;;;;;;5.10;2.83;;;24.20;61.50;;;;;;5048929;28;20222;-75
2022/07/19 01:01:11;;;;;;;5.70;2.50;;;24.20;61.60;;;;;;5039931;28;20284;-75
2022/07/19 01:03:40;;;;;;;3.33;2.40;;;24.20;62.30;;;;;;5044778;28;20198;-75
2022/07/19 01:06:09;;;;;;;4.93;2.40;;;24.10;62.40;;;;;;5045716;28;20673;-75
2022/07/19 01:08:37;;;;;;;12.17;2.57;;;24.10;62.50;;;;;;5042221;28;20219;-76
2022/07/19 01:11:05;;;;;;;3.03;2.30;;;24.00;63.00;;;;;;5044111;28;20203;-75
2022/07/19 01:13:34;;;;;;;4.00;2.67;;;24.00;63.40;;;;;;5040998;28;20206;-75
2022/07/19 01:16:01;;;;;;;3.87;2.80;;;23.90;63.60;;;;;;5039422;28;20203;-75
2022/07/19 01:18:28;;;;;;;9.40;2.93;;;23.90;63.60;;;;;;5042292;28;20199;-75
2022/07/19 01:20:57;;;;;;;6.80;3.47;;;23.80;63.70;;;;;;5040986;28;20717;-75
2022/07/19 01:23:24;;;;;;;3.33;2.60;;;23.70;63.60;;;;;;5030817;28;20207;-75
2022/07/19 01:25:51;;;;;;;5.90;2.20;;;23.70;63.70;;;;;;5038163;28;20303;-75
2022/07/19 01:28:18;;;;;;;4.30;2.60;;;23.60;63.80;;;;;;5044387;28;20386;-75
2022/07/19 01:30:46;;;;;;;4.23;2.83;;;23.60;63.80;;;;;;5041497;28;20211;-75
2022/07/19 01:33:13;;;;;;;5.73;2.93;;;23.60;64.10;;;;;;5040988;28;20295;-76
2022/07/19 01:35:40;;;;;;;5.17;2.80;;;23.60;64.20;;;;;;5040810;28;20247;-75
2022/07/19 01:38:07;;;;;;;6.57;2.70;;;23.50;64.40;;;;;;5040181;28;20679;-75
2022/07/19 01:40:34;;;;;;;5.07;2.70;;;23.50;64.50;;;;;;5038747;28;20704;-75
2022/07/19 01:43:01;;;;;;;4.80;2.60;;;23.50;64.60;;;;;;5041223;28;20203;-75
2022/07/19 01:45:29;;;;;;;6.70;2.80;;;23.50;64.80;;;;;;5041352;28;20238;-75
2022/07/19 01:47:56;;;;;;;5.10;2.80;;;23.50;64.70;;;;;;5041277;28;20536;-75
2022/07/19 01:50:23;;;;;;;4.80;2.80;;;23.50;64.90;;;;;;5042180;28;20530;-75
2022/07/19 01:52:50;;;;;;;4.93;2.80;;;23.40;65.00;;;;;;5043191;28;20206;-75
2022/07/19 01:55:19;;;;;;;5.13;2.50;;;23.40;65.20;;;;;;5041084;28;20215;-76
2022/07/19 01:57:48;;;;;;;2.93;2.63;;;23.40;65.10;;;;;;5038363;28;20211;-75
2022/07/19 02:00:15;;;;;;;5.93;2.80;;;23.40;65.10;;;;;;5047432;28;20452;-75
2022/07/19 02:02:42;;;;;;;4.77;2.67;;;23.30;65.20;;;;;;5038273;28;20270;-75
2022/07/19 02:05:10;;;;;;;4.53;2.60;;;23.30;65.60;;;;;;5041537;28;20211;-75
2022/07/19 02:07:38;;;;;;;5.63;2.87;;;23.20;65.90;;;;;;5046818;28;20209;-75
2022/07/19 02:10:07;;;;;;;3.20;2.57;;;23.20;65.90;;;;;;5043383;28;20199;-75
2022/07/19 02:12:34;;;;;;;2.80;2.50;;;23.20;65.70;;;;;;5037521;28;20208;-76
2022/07/19 02:15:02;;;;;;;5.97;2.87;;;23.10;65.60;;;;;;5043292;28;20218;-76
2022/07/19 02:17:29;;;;;;;3.43;2.40;;;23.10;65.90;;;;;;5039297;28;20602;-76
2022/07/19 02:19:57;;;;;;;4.80;2.63;;;23.10;66.00;;;;;;5043112;28;20202;-75
2022/07/19 02:22:24;;;;;;;7.60;3.40;;;23.10;66.90;;;;;;5040425;28;20282;-76
2022/07/19 02:24:51;;;;;;;4.07;2.73;;;23.10;66.50;;;;;;5034021;28;20203;-75
2022/07/19 02:27:19;;;;;;;5.53;3.40;;;23.10;66.60;;;;;;5041624;28;20257;-75
2022/07/19 02:29:46;;;;;;;3.67;2.53;;;23.10;66.70;;;;;;5043454;28;20645;-75
2022/07/19 02:32:14;;;;;;;3.90;2.90;;;23.00;66.80;;;;;;5041032;28;20213;-76
2022/07/19 02:34:41;;;;;;;5.60;3.30;;;23.00;67.20;;;;;;5036939;28;20226;-76
2022/07/19 02:37:08;;;;;;;3.53;2.67;;;23.00;67.60;;;;;;5035569;28;20673;-75
2022/07/19 02:39:35;;;;;;;3.10;2.40;;;22.90;67.70;;;;;;5044780;28;20195;-75
2022/07/19 02:42:02;;;;;;;3.53;2.80;;;22.90;67.30;;;;;;5039372;28;20206;-76
2022/07/19 02:44:29;;;;;;;9.23;3.70;;;22.90;67.00;;;;;;5045049;28;20560;-76
2022/07/19 02:46:56;;;;;;;6.43;3.20;;;22.90;67.20;;;;;;5043508;28;20209;-76
2022/07/19 02:49:23;;;;;;;3.73;3.00;;;22.90;67.10;;;;;;5039119;28;20631;-76
2022/07/19 02:51:51;;;;;;;5.93;3.30;;;22.90;67.30;;;;;;5042602;28;20211;-76
2022/07/19 02:54:18;;;;;;;4.80;2.87;;;22.90;67.60;;;;;;5043869;28;20223;-76
2022/07/19 02:56:45;;;;;;;5.27;2.70;;;22.80;68.00;;;;;;5039853;28;20645;-76
2022/07/19 02:59:12;;;;;;;5.83;2.87;;;22.80;68.20;;;;;;5038254;28;20253;-76
2022/07/19 03:01:39;;;;;;;5.40;2.93;;;22.80;68.20;;;;;;5038087;28;20194;-76
2022/07/19 03:04:06;;;;;;;6.77;3.30;;;22.80;68.50;;;;;;5038724;28;20217;-77
2022/07/19 03:06:33;;;;;;;6.53;3.07;;;22.70;68.70;;;;;;5042401;28;20195;-77
2022/07/19 03:09:00;;;;;;;2.80;2.23;;;22.70;68.90;;;;;;5039657;28;20206;-76
2022/07/19 03:11:27;;;;;;;5.47;3.00;;;22.60;68.80;;;;;;5036012;28;20286;-76
2022/07/19 03:13:54;;;;;;;4.83;3.50;;;22.60;68.40;;;;;;5041323;28;20199;-77
2022/07/19 03:16:22;;;;;;;4.07;3.07;;;22.50;68.80;;;;;;5035807;28;20234;-77
2022/07/19 03:18:49;;;;;;;4.77;2.63;;;22.50;69.20;;;;;;5037221;28;20203;-77
2022/07/19 03:21:16;;;;;;;5.67;2.90;;;22.40;69.40;;;;;;5072407;28;20202;-76
2022/07/19 03:23:44;;;;;;;6.27;2.77;;;22.40;69.50;;;;;;5038693;28;20198;-76
2022/07/19 03:26:11;;;;;;;5.43;3.00;;;22.30;69.80;;;;;;5039933;28;20567;-76
2022/07/19 03:28:38;;;;;;;6.57;3.03;;;22.30;70.90;;;;;;5038596;28;20230;-76
2022/07/19 03:31:05;;;;;;;5.00;2.80;;;22.20;70.40;;;;;;5037568;28;20206;-76
2022/07/19 03:33:33;;;;;;;3.83;3.50;;;22.20;70.40;;;;;;5040028;28;20230;-76
2022/07/19 03:36:00;;;;;;;8.97;3.00;;;22.20;70.40;;;;;;5041826;28;20258;-76
2022/07/19 03:38:27;;;;;;;6.17;3.50;;;22.10;70.60;;;;;;5042295;28;20203;-76
2022/07/19 03:40:54;;;;;;;3.47;3.17;;;22.10;70.90;;;;;;5043571;28;20206;-76
2022/07/19 03:43:23;;;;;;;7.23;2.87;;;22.10;71.50;;;;;;5044962;28;20204;-76
2022/07/19 03:45:50;;;;;;;4.30;3.00;;;22.10;71.50;;;;;;5035610;28;20207;-76
2022/07/19 03:48:17;;;;;;;2.87;2.57;;;22.10;70.80;;;;;;5046025;28;20199;-76
2022/07/19 03:50:44;;;;;;;6.03;2.97;;;22.00;71.00;;;;;;5045229;28;20214;-77
2022/07/19 03:53:12;;;;;;;5.40;2.90;;;22.00;70.50;;;;;;5042580;28;20206;-77
2022/07/19 03:55:40;;;;;;;4.37;3.23;;;22.00;70.90;;;;;;5041809;28;20218;-77
2022/07/19 03:58:07;;;;;;;9.53;3.63;;;22.00;71.30;;;;;;5048718;28;20193;-77
2022/07/19 04:00:34;;;;;;;6.60;4.07;;;21.90;71.80;;;;;;5040391;28;20234;-77
2022/07/19 04:03:01;;;;;;;6.23;3.50;;;21.90;72.30;;;;;;5043331;28;20211;-76
2022/07/19 04:05:29;;;;;;;4.67;3.57;;;21.90;72.50;;;;;;5044866;28;20199;-76
2022/07/19 04:07:56;;;;;;;5.47;3.47;;;22.00;72.60;;;;;;5041431;28;20210;-77
2022/07/19 04:10:23;;;;;;;5.73;3.50;;;22.00;72.50;;;;;;5040650;28;20633;-77
2022/07/19 04:12:50;;;;;;;7.67;4.00;;;22.00;72.60;;;;;;5046613;28;20206;-76
2022/07/19 04:15:18;;;;;;;6.07;4.20;;;22.00;72.30;;;;;;5047776;28;20246;-76
2022/07/19 04:17:45;;;;;;;6.53;4.00;;;22.00;72.20;;;;;;5044954;28;20274;-76
2022/07/19 04:20:12;;;;;;;4.63;3.80;;;22.10;72.40;;;;;;5042526;28;20210;-76
2022/07/19 04:22:40;;;;;;;8.00;3.77;;;22.10;72.40;;;;;;5044847;28;20573;-76
2022/07/19 04:25:07;;;;;;;5.50;3.47;;;22.10;72.50;;;;;;5042838;28;20202;-76
2022/07/19 04:27:35;;;;;;;5.87;3.80;;;22.20;72.50;;;;;;5038347;28;20334;-76
2022/07/19 04:30:03;;;;;;;6.00;4.30;;;22.20;72.40;;;;;;5045176;28;20210;-76
2022/07/19 04:32:32;;;;;;;5.53;4.00;;;22.20;72.10;;;;;;5042718;28;20195;-76
2022/07/19 04:34:59;;;;;;;5.10;3.40;;;22.30;71.90;;;;;;5043779;28;20218;-75
2022/07/19 04:37:27;;;;;;;7.03;3.93;;;22.40;71.80;;;;;;5043058;28;20213;-75
2022/07/19 04:39:54;;;;;;;5.80;3.20;;;22.50;71.50;;;;;;5041908;28;20276;-75
2022/07/19 04:42:21;;;;;;;7.87;3.33;;;22.50;71.30;;;;;;5043829;28;20443;-76
2022/07/19 04:44:48;;;;;;;3.63;3.33;;;22.60;71.20;;;;;;5043959;28;20226;-77
2022/07/19 04:47:16;;;;;;;8.07;3.80;;;22.60;71.00;;;;;;5043758;28;20631;-76
2022/07/19 04:49:43;;;;;;;7.33;3.70;;;22.70;71.10;;;;;;5044378;28;20519;-76
2022/07/19 04:52:10;;;;;;;6.23;3.70;;;22.70;71.50;;;;;;5040066;28;20702;-77
2022/07/19 04:54:37;;;;;;;8.40;4.30;;;22.80;71.80;;;;;;5061554;28;20546;-77
2022/07/19 04:57:04;;;;;;;10.33;3.83;;;22.90;71.50;;;;;;5042757;28;20542;-76
2022/07/19 04:59:31;;;;;;;8.83;3.60;;;23.00;71.20;;;;;;5040084;28;20267;-76
2022/07/19 05:01:58;;;;;;;6.80;3.90;;;23.10;71.20;;;;;;5041781;28;20650;-77
2022/07/19 05:04:26;;;;;;;5.47;3.93;;;23.20;71.00;;;;;;5043453;28;20203;-76
2022/07/19 05:06:56;;;;;;;6.13;3.93;;;23.30;70.60;;;;;;5039294;28;20195;-76
2022/07/19 05:09:26;;;;;;;7.63;3.70;;;23.40;70.30;;;;;;5044478;28;20207;-77
2022/07/19 05:11:54;;;;;;;8.30;4.57;;;23.50;70.10;;;;;;5078742;28;20207;-75
2022/07/19 05:14:21;;;;;;;10.13;3.67;;;23.60;70.00;;;;;;5039162;28;20577;-75
2022/07/19 05:16:51;;;;;;;6.90;3.90;;;23.70;69.80;;;;;;5031485;28;20265;-74
2022/07/19 05:19:18;;;;;;;4.67;3.50;;;23.90;69.50;;;;;;5048327;28;20539;-74
2022/07/19 05:21:45;;;;;;;5.43;3.40;;;24.00;69.10;;;;;;5047044;28;20202;-75
2022/07/19 05:24:13;;;;;;;7.43;3.50;;;24.10;68.70;;;;;;5041489;28;20638;-74
2022/07/19 05:26:40;;;;;;;5.13;3.27;;;24.30;68.30;;;;;;5044316;28;20240;-76
2022/07/19 05:29:08;;;;;;;7.53;3.20;;;24.40;67.80;;;;;;5039200;28;20230;-76
2022/07/19 05:31:35;;;;;;;13.17;3.47;;;24.60;67.30;;;;;;5042739;28;20229;-77
2022/07/19 05:34:03;;;;;;;5.13;2.97;;;24.80;66.80;;;;;;5044194;28;20558;-76
2022/07/19 05:36:30;;;;;;;9.43;3.70;;;24.90;66.60;;;;;;5043888;28;20245;-75
2022/07/19 05:38:57;;;;;;;8.63;2.83;;;25.10;66.50;;;;;;5041662;28;20217;-75
2022/07/19 05:41:24;;;;;;;4.90;3.07;;;25.20;66.30;;;;;;5042360;28;20206;-75
2022/07/19 05:43:52;;;;;;;10.63;2.87;;;25.40;65.90;;;;;;5043081;28;20217;-75
2022/07/19 05:46:20;;;;;;;8.23;2.60;;;25.60;65.60;;;;;;5045937;28;20208;-75
2022/07/19 05:48:48;;;;;;;6.67;3.27;;;25.80;65.40;;;;;;5039196;28;20543;-75
2022/07/19 05:51:15;;;;;;;11.77;3.30;;;26.00;65.30;;;;;;5044379;28;20318;-75
2022/07/19 05:53:43;;;;;;;19.33;3.73;;;26.20;64.60;;;;;;5038799;28;20205;-75
2022/07/19 05:56:10;;;;;;;9.37;2.50;;;26.30;64.60;;;;;;5040501;28;20252;-75
2022/07/19 05:58:37;;;;;;;6.47;3.10;;;26.40;64.60;;;;;;5042689;28;20208;-75
2022/07/19 06:01:17;;;;;;;5.03;2.70;;;26.60;63.80;;;;;;5038913;28;20211;-75
2022/07/19 06:03:54;;;;;;;6.43;2.80;;;26.80;63.00;;;;;;5045850;28;20266;-75
2022/07/19 06:06:30;;;;;;;3.67;2.70;;;26.90;61.90;;;;;;5045545;28;20747;-75
2022/07/19 06:08:58;;;;;;;8.00;2.97;;;27.00;61.80;;;;;;5040075;28;20213;-75
2022/07/19 06:11:27;;;;;;;5.90;2.83;;;27.20;61.90;;;;;;5038917;28;20564;-75
2022/07/19 06:13:54;;;;;;;8.67;2.90;;;27.30;61.50;;;;;;5041725;28;20201;-75
2022/07/19 06:16:22;;;;;;;9.90;2.90;;;27.50;61.10;;;;;;5044504;28;20268;-74
2022/07/19 06:18:50;;;;;;;3.00;2.63;;;27.60;60.50;;;;;;5041877;28;20286;-74
2022/07/19 06:21:19;;;;;;;8.20;2.60;;;27.80;60.00;;;;;;5041508;28;20630;-74
2022/07/19 06:23:48;;;;;;;4.40;2.60;;;27.90;59.50;;;;;;5047708;28;20562;-74
2022/07/19 06:26:15;;;;;;;6.57;2.57;;;28.00;59.20;;;;;;5044177;28;20269;-74
2022/07/19 06:28:43;;;;;;;4.57;3.00;;;28.20;58.50;;;;;;5038296;28;20293;-74
2022/07/19 06:31:12;;;;;;;7.77;3.03;;;28.30;58.50;;;;;;5045498;28;20207;-74
2022/07/19 06:33:44;;;;;;;8.70;2.70;;;28.40;58.40;;;;;;5023883;28;20215;-74
2022/07/19 06:36:12;;;;;;;3.30;2.17;;;28.50;57.70;;;;;;5044838;28;20318;-74
2022/07/19 06:38:41;;;;;;;6.00;2.33;;;28.70;57.50;;;;;;5040487;28;20210;-74
2022/07/19 06:41:09;;;;;;;7.50;1.93;;;28.80;56.40;;;;;;5046957;28;20225;-74
2022/07/19 06:43:37;;;;;;;4.47;2.33;;;28.90;56.00;;;;;;5039337;28;20195;-74
2022/07/19 06:46:05;;;;;;;8.87;2.20;;;29.10;55.90;;;;;;5043374;28;20211;-74
2022/07/19 06:48:32;;;;;;;5.83;2.30;;;29.30;55.60;;;;;;5076781;28;20214;-74
2022/07/19 06:51:00;;;;;;;3.60;2.10;;;29.50;54.50;;;;;;5041639;28;20559;-75
2022/07/19 06:53:27;;;;;;;7.33;2.10;;;29.60;53.60;;;;;;5043947;28;20203;-75
2022/07/19 06:55:54;;;;;;;6.23;2.33;;;29.80;52.80;;;;;;5041962;28;20233;-75
2022/07/19 06:58:21;;;;;;;6.00;1.90;;;29.90;51.80;;;;;;5041522;28;20187;-75
2022/07/19 07:00:48;;;;;;;2.30;2.10;;;30.10;51.30;;;;;;5041442;28;20631;-75
2022/07/19 07:03:19;;;;;;;5.17;1.90;;;30.30;50.70;;;;;;5043724;28;20202;-76
2022/07/19 07:05:46;;;;;;;3.80;1.83;;;30.50;50.00;;;;;;5038259;28;20201;-75
2022/07/19 07:08:13;;;;;;;4.20;2.10;;;30.60;50.00;;;;;;5041166;28;20644;-75
2022/07/19 07:10:40;;;;;;;6.97;1.87;;;30.70;49.30;;;;;;5039993;28;20210;-75
2022/07/19 07:13:08;;;;;;;4.83;1.83;;;30.90;48.80;;;;;;5043515;28;20199;-75
2022/07/19 07:15:35;;;;;;;2.87;2.10;;;31.00;48.40;;;;;;5039346;28;20218;-75
2022/07/19 07:18:03;;;;;;;2.10;1.83;;;31.10;48.30;;;;;;5040249;28;20221;-75
2022/07/19 07:20:30;;;;;;;4.00;2.17;;;31.30;47.30;;;;;;5040033;28;20257;-75
2022/07/19 07:22:57;;;;;;;4.50;2.03;;;31.30;46.20;;;;;;5043074;28;20195;-75
2022/07/19 07:25:24;;;;;;;3.23;2.13;;;31.40;46.70;;;;;;5041781;28;20215;-76
2022/07/19 07:27:51;;;;;;;6.70;2.67;;;31.40;46.40;;;;;;5042901;28;20281;-75
2022/07/19 07:30:18;;;;;;;7.47;2.50;;;31.50;46.20;;;;;;5046639;28;20279;-75
2022/07/19 07:32:45;;;;;;;5.50;2.03;;;31.60;46.10;;;;;;5045583;28;20209;-75
2022/07/19 07:35:12;;;;;;;3.90;2.10;;;31.70;46.10;;;;;;5046876;28;20202;-75
2022/07/19 07:37:40;;;;;;;6.50;1.73;;;31.90;45.70;;;;;;5040281;28;20207;-75
2022/07/19 07:40:07;;;;;;;5.73;2.10;;;32.10;45.40;;;;;;5046942;28;20325;-75
2022/07/19 07:42:35;;;;;;;3.10;1.87;;;32.20;44.70;;;;;;5044192;28;20199;-75
2022/07/19 07:45:02;;;;;;;6.47;1.90;;;32.30;44.00;;;;;;5041342;28;20209;-75
2022/07/19 07:47:29;;;;;;;2.80;1.50;;;32.50;43.90;;;;;;5040090;28;20211;-75
2022/07/19 07:49:56;;;;;;;4.20;1.77;;;32.60;43.50;;;;;;5039873;28;20696;-75
2022/07/19 07:52:23;;;;;;;2.00;1.77;;;32.70;43.50;;;;;;5048947;28;20207;-75
2022/07/19 07:54:52;;;;;;;4.73;1.73;;;32.80;43.00;;;;;;5043856;28;20269;-74
2022/07/19 07:57:39;;;;;;;1.60;1.50;;;32.90;42.80;;;;;;5041012;28;20250;-74
2022/07/19 08:00:09;;;;;;;1.80;1.70;;;33.10;42.60;;;;;;5040100;28;20491;-75
2022/07/19 08:02:45;;;;;;;3.97;1.83;;;33.10;40.90;;;;;;5045926;28;20297;-75
2022/07/19 08:05:12;;;;;;;5.07;1.70;;;33.20;40.70;;;;;;5046211;28;20551;-75
2022/07/19 08:07:39;;;;;;;1.70;1.60;;;33.20;41.00;;;;;;5046812;28;20633;-75
2022/07/19 08:10:08;;;;;;;3.80;1.80;;;33.20;41.00;;;;;;5048560;28;20198;-75
2022/07/19 08:12:35;;;;;;;3.83;2.03;;;33.20;42.00;;;;;;5048514;28;20210;-75
2022/07/19 08:15:04;;;;;;;1.90;1.80;;;33.30;40.50;;;;;;5049099;28;20483;-74
2022/07/19 08:17:31;;;;;;;1.70;1.60;;;33.30;40.30;;;;;;5059102;28;20531;-74
2022/07/19 08:19:59;;;;;;;4.77;1.60;;;33.30;40.80;;;;;;5042666;28;20646;-74
2022/07/19 08:22:28;;;;;;;2.30;1.67;;;33.40;41.70;;;;;;5047320;28;20206;-73
2022/07/19 08:24:55;;;;;;;6.30;2.00;;;33.60;40.70;;;;;;5042195;28;20215;-74
2022/07/19 08:27:22;;;;;;;4.13;1.77;;;33.80;39.70;;;;;;5043287;28;20231;-74
2022/07/19 08:29:50;;;;;;;4.67;1.60;;;34.00;37.80;;;;;;5040703;28;20214;-74
2022/07/19 08:32:17;;;;;;;2.90;1.60;;;34.00;37.70;;;;;;5039827;28;20225;-74
2022/07/19 08:34:44;;;;;;;3.20;1.80;;;34.00;37.90;;;;;;5043695;28;20206;-74
2022/07/19 08:37:11;;;;;;;8.70;2.30;;;34.10;38.00;;;;;;5042632;28;20848;-74
2022/07/19 08:39:38;;;;;;;1.97;1.77;;;34.10;38.30;;;;;;5047385;28;20194;-74
2022/07/19 08:42:06;;;;;;;4.00;1.60;;;34.20;38.10;;;;;;5042032;28;20242;-74
2022/07/19 08:44:38;;;;;;;2.30;1.83;;;34.40;37.50;;;;;;5047128;28;20216;-74
2022/07/19 08:47:06;;;;;;;3.30;1.47;;;34.50;37.00;;;;;;5044041;28;20618;-74
2022/07/19 08:49:34;;;;;;;2.17;1.80;;;34.70;37.10;;;;;;5044378;28;20207;-74
2022/07/19 08:52:01;;;;;;;1.90;1.70;;;34.90;37.00;;;;;;5041410;28;20214;-74
2022/07/19 08:54:28;;;;;;;4.00;2.23;;;35.10;35.10;;;;;;5029487;28;20233;-74
2022/07/19 08:59:46;;;;;;;3.67;1.80;;;35.30;36.80;;;;;;5043153;28;20246;-74
2022/07/19 09:02:14;;;;;;;3.33;1.90;;;35.40;35.40;;;;;;5047547;28;20317;-75
2022/07/19 09:04:42;;;;;;;3.30;1.50;;;35.40;36.50;;;;;;5043979;28;20203;-74
2022/07/19 09:07:09;;;;;;;1.45;1.30;;;35.50;36.50;;;;;;5043171;28;20198;-74
2022/07/19 09:09:36;;;;;;;4.17;1.87;;;35.60;35.10;;;;;;5040494;28;20703;-75
2022/07/19 09:12:06;;;;;;;1.90;1.57;;;35.70;34.10;;;;;;5044244;28;20512;-75
2022/07/19 09:14:36;;;;;;;5.50;1.70;;;35.90;34.80;;;;;;5039087;28;20203;-75
2022/07/19 09:17:16;;;;;;;4.23;1.70;;;36.10;35.70;;;;;;5042319;28;20256;-75
2022/07/19 09:19:46;;;;;;;5.97;2.30;;;36.30;35.20;;;;;;5024896;28;20233;-76
2022/07/19 09:22:15;;;;;;;3.53;1.60;;;36.40;34.70;;;;;;5041029;28;20241;-75
2022/07/19 09:24:48;;;;;;;2.83;1.70;;;36.40;34.40;;;;;;5049785;28;20218;-76
2022/07/19 09:27:19;;;;;;;1.50;1.40;;;36.50;32.80;;;;;;5048176;28;20242;-76
2022/07/19 09:29:52;;;;;;;2.22;1.80;;;36.40;32.80;;;;;;5041272;28;20238;-76
2022/07/19 09:32:21;;;;;;;2.25;1.50;;;36.20;33.60;;;;;;5041210;28;20226;-76
2022/07/19 09:35:02;;;;;;;2.85;1.40;;;36.10;33.50;;;;;;5037616;28;20198;-76
2022/07/19 09:37:32;;;;;;;3.47;1.85;;;36.00;33.50;;;;;;5045840;28;20219;-76
2022/07/19 09:40:04;;;;;;;3.25;1.70;;;35.90;33.20;;;;;;5048442;28;20198;-73
2022/07/19 09:42:34;;;;;;;4.83;1.67;;;35.70;33.20;;;;;;5038914;28;20210;-73
2022/07/19 09:45:11;;;;;;;5.10;1.90;;;35.30;34.20;;;;;;5042746;28;20240;-72
2022/07/19 09:47:40;;;;;;;1.80;1.70;;;35.10;34.80;;;;;;5042650;28;20281;-73
2022/07/19 09:50:14;;;;;;;1.37;1.13;;;34.80;33.70;;;;;;5040939;28;20207;-72
2022/07/19 09:52:42;;;;;;;1.83;1.50;;;34.70;34.80;;;;;;5045205;28;20206;-72
2022/07/19 09:55:15;;;;;;;4.73;2.00;;;34.80;34.90;;;;;;5042128;28;20214;-72
2022/07/19 09:57:45;;;;;;;1.90;1.73;;;34.90;35.10;;;;;;5044675;28;20223;-72
2022/07/19 10:00:15;;;;;;;2.27;1.63;;;35.00;34.70;;;;;;5036317;28;20203;-73
2022/07/19 10:02:47;;;;;;;4.03;1.80;;;35.10;33.80;;;;;;5044182;28;20207;-73
2022/07/19 10:05:15;;;;;;;4.37;1.80;;;35.10;34.70;;;;;;5048006;28;20650;-73
2022/07/19 10:07:42;;;;;;;4.40;1.90;;;35.10;34.60;;;;;;5043418;28;20203;-73
2022/07/19 10:10:12;;;;;;;4.00;1.90;;;34.90;35.90;;;;;;5042548;28;20209;-73
2022/07/19 10:12:42;;;;;;;1.80;1.70;;;34.80;35.60;;;;;;5073599;28;20211;-73
2022/07/19 10:15:12;;;;;;;3.87;2.30;;;34.70;36.30;;;;;;5039083;28;20268;-73
2022/07/19 10:17:47;;;;;;;1.83;1.70;;;34.80;35.90;;;;;;5037083;28;20254;-73
2022/07/19 10:20:21;;;;;;;5.57;3.10;;;34.90;36.10;;;;;;5038349;28;20229;-72
2022/07/19 10:22:50;;;;;;;6.23;5.00;;;35.10;35.90;;;;;;5039898;28;20186;-72
2022/07/19 10:25:17;;;;;;;6.30;5.70;;;35.20;36.50;;;;;;5070642;28;20199;-72
2022/07/19 10:27:48;;;;;;;4.97;4.47;;;35.40;36.20;;;;;;5043664;28;20329;-73
2022/07/19 10:30:15;;;;;;;5.70;3.97;;;35.50;36.00;;;;;;5038076;28;20207;-73
2022/07/19 10:32:45;;;;;;;10.03;7.97;;;35.60;35.50;;;;;;5039759;28;20654;-72
2022/07/19 10:35:16;;;;;;;5.07;2.07;;;35.70;35.00;;;;;;5040157;28;20222;-73
2022/07/19 10:37:46;;;;;;;10.80;6.70;;;35.80;34.50;;;;;;5040016;28;20275;-73
2022/07/19 10:40:33;;;;;;;5.63;2.97;;;35.80;35.00;;;;;;5054771;28;20272;-73
2022/07/19 10:43:08;;;;;;;3.60;3.30;;;35.80;34.00;;;;;;5075199;28;20275;-73
2022/07/19 10:45:38;;;;;;;3.53;2.87;;;35.80;34.90;;;;;;5037473;28;20195;-73
2022/07/19 10:48:10;;;;;;;3.93;2.03;;;35.90;34.90;;;;;;5039416;28;20208;-73
2022/07/19 10:50:50;;;;;;;2.33;1.90;;;36.00;34.80;;;;;;5039964;28;20203;-72
2022/07/19 10:53:39;;;;;;;4.17;1.93;;;36.20;34.80;;;;;;5022692;28;20211;-73
2022/07/19 10:56:20;;;;;;;5.63;2.28;;;36.30;33.90;;;;;;5073623;28;20214;-73
2022/07/19 10:58:53;;;;;;;5.18;2.10;;;36.40;33.70;;;;;;5043980;28;20268;-73
2022/07/19 11:01:21;;;;;;;4.78;2.05;;;36.50;33.60;;;;;;5041720;28;20601;-74
2022/07/19 11:03:50;;;;;;;2.67;2.15;;;36.60;33.10;;;;;;5042432;28;20219;-73
2022/07/19 11:06:22;;;;;;;2.38;1.90;;;36.60;33.40;;;;;;5046038;28;20298;-73
2022/07/19 11:08:57;;;;;;;4.93;2.22;;;36.70;33.60;;;;;;5052339;28;20702;-73
2022/07/19 11:11:28;;;;;;;1.92;1.83;;;36.70;33.50;;;;;;5049691;28;20650;-73
2022/07/19 11:14:00;;;;;;;3.15;1.80;;;36.70;34.40;;;;;;5040978;28;20579;-73
2022/07/19 11:16:28;;;;;;;4.70;2.13;;;36.80;32.70;;;;;;5051846;28;20205;-73
2022/07/19 11:19:07;;;;;;;2.20;2.00;;;36.80;33.80;;;;;;5047763;28;20202;-73
2022/07/19 11:21:36;;;;;;;5.88;2.50;;;36.90;31.90;;;;;;5045064;28;20201;-73
2022/07/19 11:24:05;;;;;;;7.50;2.15;;;36.90;32.90;;;;;;5038900;28;20298;-73
2022/07/19 11:26:39;;;;;;;4.28;2.38;;;37.00;33.10;;;;;;5046055;28;20292;-73
2022/07/19 11:29:14;;;;;;;5.72;2.22;;;37.10;32.80;;;;;;5047821;28;20505;-73
2022/07/19 11:31:50;;;;;;;3.80;2.22;;;37.20;33.00;;;;;;5047797;28;20210;-73
2022/07/19 11:34:21;;;;;;;2.67;2.30;;;37.30;32.50;;;;;;5044521;28;20199;-74
2022/07/19 11:36:57;;;;;;;2.67;1.90;;;37.40;32.40;;;;;;5043699;28;20229;-74
2022/07/19 11:39:24;;;;;;;2.20;2.00;;;37.60;32.40;;;;;;5047351;28;20276;-74
2022/07/19 11:41:51;;;;;;;5.13;2.33;;;37.70;32.70;;;;;;5040059;28;20196;-74
2022/07/19 11:44:19;;;;;;;8.63;2.72;;;37.80;33.10;;;;;;5076851;28;20199;-74
2022/07/19 11:46:46;;;;;;;3.25;1.88;;;37.90;32.80;;;;;;5041475;28;20286;-74
2022/07/19 11:49:14;;;;;;;3.17;2.30;;;38.00;32.80;;;;;;5046651;28;20203;-74
2022/07/19 11:51:41;;;;;;;2.35;2.15;;;38.10;33.00;;;;;;5041595;28;20207;-74
2022/07/19 11:54:09;;;;;;;2.70;2.20;;;38.30;33.00;;;;;;5044777;28;20210;-74
2022/07/19 11:56:36;;;;;;;2.95;2.65;;;38.40;32.80;;;;;;5044519;28;20247;-74
2022/07/19 11:59:06;;;;;;;4.32;2.30;;;38.40;31.90;;;;;;5045029;28;20199;-74
2022/07/19 12:01:39;;;;;;;4.05;2.33;;;38.40;32.60;;;;;;5041571;28;20290;-74
2022/07/19 12:04:12;;;;;;;2.35;2.00;;;38.30;32.30;;;;;;5044558;28;20629;-74
2022/07/19 12:06:45;;;;;;;2.72;2.40;;;38.40;32.50;;;;;;5048433;28;20214;-74
2022/07/19 12:09:16;;;;;;;2.83;2.40;;;38.40;32.50;;;;;;5042169;28;20195;-74
2022/07/19 12:11:44;;;;;;;3.15;2.40;;;38.40;31.90;;;;;;5042099;28;20210;-72
2022/07/19 12:14:21;;;;;;;3.53;2.17;;;38.30;32.80;;;;;;5042482;28;20203;-71
2022/07/19 12:17:07;;;;;;;4.65;2.90;;;38.20;32.70;;;;;;5050384;28;20237;-71
2022/07/19 12:19:35;;;;;;;4.03;2.35;;;38.10;32.70;;;;;;5039457;28;20199;-71
2022/07/19 12:22:02;;;;;;;5.93;2.30;;;38.00;33.00;;;;;;5044681;28;20195;-72
2022/07/19 12:24:30;;;;;;;3.30;2.28;;;37.90;33.10;;;;;;5039164;28;20195;-71
2022/07/19 12:27:03;;;;;;;2.38;2.10;;;37.80;33.50;;;;;;5046314;28;20325;-71
2022/07/19 12:29:52;;;;;;;4.53;2.22;;;37.80;33.00;;;;;;5040766;28;20542;-71
2022/07/19 12:32:45;;;;;;;3.33;2.53;;;37.70;33.00;;;;;;5044712;28;20207;-71
2022/07/19 12:35:14;;;;;;;2.78;2.08;;;37.50;33.50;;;;;;5073827;28;20234;-71
2022/07/19 12:37:44;;;;;;;6.32;2.35;;;37.50;33.60;;;;;;5040930;28;20317;-72
2022/07/19 12:40:17;;;;;;;2.88;2.05;;;37.50;33.70;;;;;;5040517;28;20205;-71
2022/07/19 12:42:49;;;;;;;6.00;2.45;;;37.50;33.20;;;;;;5039858;28;20203;-71
2022/07/19 12:45:19;;;;;;;2.53;1.95;;;37.40;33.50;;;;;;5044092;28;20229;-71
2022/07/19 12:47:50;;;;;;;6.30;2.42;;;37.20;33.80;;;;;;5045452;28;20214;-71
2022/07/19 12:50:29;;;;;;;2.50;2.08;;;37.10;34.30;;;;;;5051422;28;20754;-71
2022/07/19 12:52:58;;;;;;;4.75;2.25;;;36.90;33.80;;;;;;5043946;28;20195;-72
2022/07/19 12:55:27;;;;;;;2.55;2.30;;;36.80;34.80;;;;;;5039538;28;20219;-71
2022/07/19 12:57:56;;;;;;;4.60;2.35;;;36.80;35.10;;;;;;5048755;28;20297;-71